Time;durP1;ratioP1;P1;durP2;ratioP2;P2;SDS_P1;SDS_P2;PMS_P1;PMS_P2;Temp;Humidity;BMP_temperature;BMP_pressure;BME280_temperature;BME280_humidity;BME280_pressure;Samples;Min_cycle;Max_cycle;Signal;HPM_P1;HPM_P2
2023/09/06 00:00:29;;;;;;;0.10;0.10;;;18.00;55.30;;;;;;5052355;28;20601;-48
2023/09/06 00:03:00;;;;;;;0.10;0.10;;;18.00;55.20;;;;;;5051832;28;20213;-48
2023/09/06 00:05:31;;;;;;;0.10;0.10;;;18.10;55.20;;;;;;5051533;28;20217;-48
2023/09/06 00:08:03;;;;;;;0.13;0.13;;;18.10;55.20;;;;;;5050799;28;20246;-47
2023/09/06 00:10:38;;;;;;;0.10;0.10;;;18.10;55.20;;;;;;5051807;28;20210;-48
2023/09/06 00:13:09;;;;;;;0.10;0.10;;;18.10;55.10;;;;;;5052248;28;20214;-48
2023/09/06 00:15:40;;;;;;;0.10;0.10;;;18.20;55.10;;;;;;5051036;28;20191;-49
2023/09/06 00:18:10;;;;;;;0.20;0.20;;;18.20;55.00;;;;;;5049928;28;20583;-48
2023/09/06 00:20:41;;;;;;;0.10;0.10;;;18.20;54.90;;;;;;5031841;28;20203;-48
2023/09/06 00:23:14;;;;;;;0.00;0.00;;;18.20;54.90;;;;;;5031619;28;20200;-49
2023/09/06 00:25:46;;;;;;;0.10;0.10;;;18.20;54.80;;;;;;5031566;28;20200;-51
2023/09/06 00:30:50;;;;;;;0.10;0.10;;;18.20;55.30;;;;;;5069667;28;20210;-52
2023/09/06 00:33:21;;;;;;;0.10;0.10;;;18.20;54.70;;;;;;5071099;28;20418;-54
2023/09/06 00:35:52;;;;;;;0.10;0.10;;;18.30;54.90;;;;;;5071369;28;20812;-54
2023/09/06 00:38:24;;;;;;;0.10;0.10;;;18.30;54.80;;;;;;5071475;28;20225;-52
2023/09/06 00:40:57;;;;;;;0.10;0.10;;;18.30;54.80;;;;;;5071796;28;20213;-49
2023/09/06 00:43:27;;;;;;;0.10;0.10;;;18.30;54.70;;;;;;5071528;28;20528;-52
2023/09/06 00:45:59;;;;;;;0.10;0.10;;;18.30;54.70;;;;;;5071518;28;20681;-51
2023/09/06 00:48:31;;;;;;;0.10;0.10;;;18.40;54.70;;;;;;5068757;28;20219;-54
2023/09/06 00:51:02;;;;;;;0.10;0.10;;;18.40;54.70;;;;;;5070976;28;20691;-52
2023/09/06 00:53:34;;;;;;;0.10;0.10;;;18.40;54.60;;;;;;5070262;28;20226;-54
2023/09/06 00:56:08;;;;;;;0.10;0.10;;;18.40;54.60;;;;;;5071251;28;20201;-52
2023/09/06 00:58:40;;;;;;;0.00;0.00;;;18.40;54.60;;;;;;5070621;28;20210;-54
2023/09/06 01:01:11;;;;;;;0.10;0.10;;;18.40;54.60;;;;;;5070975;28;20355;-53
2023/09/06 01:03:42;;;;;;;0.10;0.10;;;18.40;54.50;;;;;;5071111;28;20199;-51
2023/09/06 01:06:20;;;;;;;0.10;0.10;;;18.40;54.50;;;;;;5071221;28;20606;-54
2023/09/06 01:08:57;;;;;;;0.10;0.10;;;18.40;54.60;;;;;;5070948;28;20214;-53
2023/09/06 01:11:32;;;;;;;0.17;0.17;;;18.50;54.60;;;;;;5071451;28;20226;-55
2023/09/06 01:14:03;;;;;;;0.00;0.00;;;18.50;54.60;;;;;;5071249;28;20225;-54
2023/09/06 01:16:38;;;;;;;0.00;0.00;;;18.50;54.60;;;;;;5071335;28;20191;-52
2023/09/06 01:19:11;;;;;;;0.10;0.10;;;18.50;54.70;;;;;;5071069;28;20229;-55
2023/09/06 01:21:50;;;;;;;0.10;0.10;;;18.50;54.70;;;;;;5070953;28;20230;-55
2023/09/06 01:24:24;;;;;;;0.10;0.10;;;18.50;54.60;;;;;;5071027;28;20202;-55
2023/09/06 01:26:55;;;;;;;0.00;0.00;;;18.60;54.70;;;;;;5071129;28;20267;-54
2023/09/06 01:29:26;;;;;;;0.10;0.10;;;18.50;54.60;;;;;;5071136;28;20206;-54
2023/09/06 01:31:57;;;;;;;0.00;0.00;;;18.60;54.60;;;;;;5070716;28;20195;-54
2023/09/06 01:34:27;;;;;;;0.00;0.00;;;18.60;54.60;;;;;;5070839;28;20694;-56
2023/09/06 01:36:58;;;;;;;0.10;0.10;;;18.60;54.70;;;;;;5071055;28;20222;-56
2023/09/06 01:39:30;;;;;;;0.10;0.10;;;18.60;54.70;;;;;;5070613;28;20191;-55
2023/09/06 01:42:01;;;;;;;0.10;0.10;;;18.60;54.60;;;;;;5071087;28;20199;-55
2023/09/06 01:44:32;;;;;;;0.10;0.10;;;18.60;54.60;;;;;;5070854;28;20199;-55
2023/09/06 01:47:04;;;;;;;0.00;0.00;;;18.60;54.50;;;;;;5070262;28;20678;-54
2023/09/06 01:49:34;;;;;;;0.10;0.10;;;18.60;54.50;;;;;;5070340;28;20191;-53
2023/09/06 01:52:05;;;;;;;0.08;0.08;;;18.70;54.50;;;;;;5070595;28;20398;-55
2023/09/06 01:54:37;;;;;;;0.05;0.05;;;18.70;54.40;;;;;;5070493;28;20230;-54
2023/09/06 01:57:08;;;;;;;0.10;0.10;;;18.60;54.40;;;;;;5070719;28;20226;-56
2023/09/06 01:59:39;;;;;;;0.10;0.10;;;18.70;54.50;;;;;;5070428;28;20207;-54
2023/09/06 02:02:10;;;;;;;0.10;0.10;;;18.70;54.50;;;;;;5070075;28;20203;-55
2023/09/06 02:04:41;;;;;;;0.00;0.00;;;18.70;54.50;;;;;;5070250;28;20450;-55
2023/09/06 02:07:11;;;;;;;0.10;0.10;;;18.70;54.50;;;;;;5070343;28;20230;-56
2023/09/06 02:09:44;;;;;;;0.10;0.10;;;18.70;54.40;;;;;;5070150;28;20668;-55
2023/09/06 02:12:14;;;;;;;0.10;0.10;;;18.70;55.10;;;;;;5073772;28;20195;-54
2023/09/06 02:14:45;;;;;;;0.10;0.10;;;18.70;54.50;;;;;;5073845;28;20222;-56
2023/09/06 02:17:15;;;;;;;0.10;0.10;;;18.70;54.50;;;;;;5073796;28;20214;-52
2023/09/06 02:19:46;;;;;;;0.10;0.10;;;18.80;54.60;;;;;;5073608;28;20202;-56
2023/09/06 02:22:18;;;;;;;0.10;0.10;;;18.80;54.50;;;;;;5073801;28;20553;-56
2023/09/06 02:24:50;;;;;;;0.10;0.10;;;18.80;54.50;;;;;;5072755;28;20662;-49
2023/09/06 02:27:21;;;;;;;0.10;0.10;;;18.80;54.50;;;;;;5073659;28;20627;-54
2023/09/06 02:29:53;;;;;;;0.08;0.08;;;18.80;54.50;;;;;;5086320;22;20229;-47
2023/09/06 02:32:24;;;;;;;0.00;0.00;;;18.80;54.50;;;;;;5074148;28;20202;-48
2023/09/06 02:34:55;;;;;;;0.10;0.10;;;18.80;54.50;;;;;;5073901;28;20241;-48
2023/09/06 02:37:25;;;;;;;0.10;0.10;;;18.80;54.40;;;;;;5074076;28;20210;-49
2023/09/06 02:39:58;;;;;;;0.10;0.10;;;18.80;54.40;;;;;;5073630;28;20202;-47
2023/09/06 02:42:29;;;;;;;0.10;0.10;;;18.80;54.40;;;;;;5073074;28;20194;-49
2023/09/06 02:44:59;;;;;;;0.10;0.10;;;18.80;54.40;;;;;;5073506;28;20206;-48
2023/09/06 02:47:30;;;;;;;0.10;0.10;;;18.80;54.40;;;;;;5073607;28;20713;-50
2023/09/06 02:50:05;;;;;;;0.10;0.10;;;18.90;54.40;;;;;;5073650;28;20203;-50
2023/09/06 02:52:36;;;;;;;0.10;0.10;;;18.90;54.50;;;;;;5073603;28;20198;-48
2023/09/06 02:55:10;;;;;;;0.10;0.10;;;18.90;54.40;;;;;;5073295;28;20305;-48
2023/09/06 02:57:41;;;;;;;0.00;0.00;;;18.90;54.50;;;;;;5073420;28;20752;-49
2023/09/06 03:00:24;;;;;;;0.08;0.08;;;18.90;54.40;;;;;;5073274;28;20201;-48
2023/09/06 03:02:58;;;;;;;0.10;0.10;;;18.90;54.40;;;;;;5073215;28;20282;-48
2023/09/06 03:05:30;;;;;;;0.00;0.00;;;18.90;54.40;;;;;;5073694;28;20703;-48
2023/09/06 03:08:01;;;;;;;0.00;0.00;;;18.90;54.40;;;;;;5073745;28;20227;-50
2023/09/06 03:10:34;;;;;;;0.10;0.10;;;18.90;54.40;;;;;;5072824;28;20195;-49
2023/09/06 03:13:05;;;;;;;0.00;0.00;;;18.90;54.50;;;;;;5072946;28;20199;-50
2023/09/06 03:15:36;;;;;;;0.10;0.10;;;18.90;54.40;;;;;;5072891;28;20322;-49
2023/09/06 03:18:07;;;;;;;0.10;0.10;;;18.90;54.40;;;;;;5072967;28;20364;-48
2023/09/06 03:20:42;;;;;;;0.10;0.10;;;18.90;54.30;;;;;;5072385;28;20191;-47
2023/09/06 03:23:19;;;;;;;0.10;0.10;;;18.90;54.20;;;;;;5072122;28;20209;-50
2023/09/06 03:25:53;;;;;;;0.00;0.00;;;18.90;54.90;;;;;;5072859;28;20623;-49
2023/09/06 03:31:00;;;;;;;0.10;0.10;;;18.90;54.80;;;;;;5071591;28;20716;-59
2023/09/06 03:33:31;;;;;;;0.10;0.10;;;19.00;54.30;;;;;;5072898;28;20617;-59
2023/09/06 03:36:07;;;;;;;0.10;0.10;;;19.00;54.30;;;;;;5071937;28;20227;-59
2023/09/06 03:38:38;;;;;;;0.10;0.10;;;19.00;54.30;;;;;;5072230;28;20218;-58
2023/09/06 03:41:10;;;;;;;0.10;0.10;;;19.00;54.30;;;;;;5072712;28;20623;-59
2023/09/06 03:43:42;;;;;;;0.10;0.10;;;19.00;54.30;;;;;;5072975;28;20220;-58
2023/09/06 03:46:14;;;;;;;0.10;0.10;;;19.00;54.30;;;;;;5072255;28;20191;-58
2023/09/06 03:48:45;;;;;;;0.10;0.10;;;19.00;54.30;;;;;;5052621;28;20247;-59
2023/09/06 03:51:16;;;;;;;0.10;0.10;;;19.00;54.40;;;;;;5052869;28;20199;-59
2023/09/06 03:53:47;;;;;;;0.10;0.10;;;19.00;54.40;;;;;;5052252;28;20274;-58
2023/09/06 03:56:20;;;;;;;0.10;0.10;;;19.00;54.30;;;;;;5052050;28;20235;-59
2023/09/06 03:58:53;;;;;;;0.10;0.10;;;19.00;54.30;;;;;;5051913;28;20631;-59
2023/09/06 04:01:25;;;;;;;0.05;0.05;;;19.00;54.30;;;;;;5051661;28;20231;-59
2023/09/06 04:03:56;;;;;;;0.10;0.10;;;19.00;54.30;;;;;;5051878;28;20195;-59
2023/09/06 04:06:29;;;;;;;0.10;0.10;;;19.10;54.30;;;;;;5071658;28;20205;-59
2023/09/06 04:08:59;;;;;;;0.00;0.00;;;19.10;54.30;;;;;;5071874;28;20206;-58
2023/09/06 04:11:32;;;;;;;0.10;0.10;;;19.10;54.30;;;;;;5071260;28;20199;-59
2023/09/06 04:14:03;;;;;;;0.10;0.10;;;19.10;54.30;;;;;;5071292;28;20199;-59
2023/09/06 04:16:33;;;;;;;0.10;0.10;;;19.10;54.20;;;;;;5071043;28;20191;-59
2023/09/06 04:19:05;;;;;;;0.10;0.10;;;19.20;54.20;;;;;;5071283;28;20186;-59
2023/09/06 04:21:37;;;;;;;0.10;0.10;;;19.10;54.20;;;;;;5071765;28;20202;-59
2023/09/06 04:24:09;;;;;;;0.10;0.10;;;19.10;54.20;;;;;;5071630;28;20650;-59
2023/09/06 04:26:42;;;;;;;0.00;0.00;;;19.20;54.20;;;;;;5071649;28;20658;-59
2023/09/06 04:29:12;;;;;;;0.08;0.08;;;19.20;54.30;;;;;;5071863;28;20666;-59
2023/09/06 04:31:44;;;;;;;0.00;0.00;;;19.20;54.20;;;;;;5071315;28;20202;-59
2023/09/06 04:34:14;;;;;;;0.03;0.03;;;19.20;54.20;;;;;;5069724;28;20198;-59
2023/09/06 04:36:45;;;;;;;0.10;0.10;;;19.20;54.20;;;;;;5071595;28;20191;-59
2023/09/06 04:39:17;;;;;;;0.10;0.10;;;19.20;54.20;;;;;;5071337;28;20198;-58
2023/09/06 04:41:49;;;;;;;0.10;0.10;;;19.20;54.20;;;;;;5070933;28;20272;-59
2023/09/06 04:44:24;;;;;;;0.10;0.10;;;19.20;54.10;;;;;;5069789;28;20198;-59
2023/09/06 04:46:55;;;;;;;0.10;0.10;;;19.30;54.10;;;;;;5071262;28;20224;-59
2023/09/06 04:49:25;;;;;;;0.10;0.10;;;19.20;54.00;;;;;;5071631;28;20245;-59
2023/09/06 04:51:56;;;;;;;0.10;0.10;;;19.20;54.00;;;;;;5071409;28;20194;-59
2023/09/06 04:54:27;;;;;;;0.00;0.00;;;19.20;54.00;;;;;;5071481;28;20233;-59
2023/09/06 04:56:59;;;;;;;0.10;0.10;;;19.30;54.00;;;;;;5071606;28;20218;-59
2023/09/06 04:59:33;;;;;;;0.00;0.00;;;19.30;54.10;;;;;;5071617;28;20199;-59
2023/09/06 05:02:03;;;;;;;0.10;0.10;;;19.30;54.10;;;;;;5071681;28;20718;-59
2023/09/06 05:04:36;;;;;;;0.10;0.10;;;19.30;54.10;;;;;;5071251;28;20213;-59
2023/09/06 05:07:07;;;;;;;0.05;0.05;;;19.30;54.10;;;;;;5071138;28;20226;-59
2023/09/06 05:09:38;;;;;;;0.10;0.10;;;19.30;54.10;;;;;;5071053;28;20198;-59
2023/09/06 05:12:11;;;;;;;0.10;0.10;;;19.30;54.10;;;;;;5071372;28;20673;-59
2023/09/06 05:14:41;;;;;;;0.10;0.10;;;19.30;54.10;;;;;;5071049;28;20226;-58
2023/09/06 05:17:12;;;;;;;0.05;0.05;;;19.30;54.10;;;;;;5071303;28;20218;-59
2023/09/06 05:19:43;;;;;;;0.10;0.10;;;19.30;54.10;;;;;;5070891;28;20198;-57
2023/09/06 05:22:13;;;;;;;0.10;0.10;;;19.30;54.10;;;;;;5071131;28;20199;-59
2023/09/06 05:24:44;;;;;;;0.10;0.10;;;19.30;54.10;;;;;;5070954;28;20199;-58
2023/09/06 05:27:17;;;;;;;0.00;0.00;;;19.40;54.10;;;;;;5070948;28;20677;-57
2023/09/06 05:29:49;;;;;;;0.10;0.10;;;19.40;54.00;;;;;;5071586;28;20214;-59
2023/09/06 05:32:20;;;;;;;0.10;0.10;;;19.40;54.00;;;;;;5070744;28;20287;-59
2023/09/06 05:34:51;;;;;;;0.10;0.10;;;19.40;54.00;;;;;;5071302;28;20336;-57
2023/09/06 05:37:22;;;;;;;0.10;0.10;;;19.40;54.00;;;;;;5070990;28;20721;-57
2023/09/06 05:43:16;;;;;;;0.10;0.10;;;19.40;54.00;;;;;;5071111;28;20221;-57
2023/09/06 05:45:47;;;;;;;0.10;0.10;;;19.40;53.90;;;;;;5072368;28;20199;-59
2023/09/06 05:48:27;;;;;;;0.10;0.10;;;19.40;54.00;;;;;;5074848;28;20365;-59
2023/09/06 05:50:57;;;;;;;0.00;0.00;;;19.40;54.00;;;;;;5074389;28;20182;-57
2023/09/06 05:53:29;;;;;;;0.00;0.00;;;19.40;54.00;;;;;;5074823;28;20198;-57
2023/09/06 05:55:59;;;;;;;0.10;0.10;;;19.40;54.00;;;;;;5074661;28;20226;-57
2023/09/06 05:58:37;;;;;;;0.10;0.10;;;19.40;54.10;;;;;;5074532;28;20211;-56
2023/09/06 06:01:08;;;;;;;0.10;0.10;;;19.40;54.10;;;;;;5075018;28;20194;-58
2023/09/06 06:03:39;;;;;;;0.10;0.10;;;19.40;54.00;;;;;;5074656;28;20198;-57
2023/09/06 06:06:10;;;;;;;0.00;0.00;;;19.40;54.00;;;;;;5074186;28;20194;-57
2023/09/06 06:08:41;;;;;;;0.10;0.10;;;19.40;54.00;;;;;;5073620;28;20207;-57
2023/09/06 06:11:12;;;;;;;0.00;0.00;;;19.40;54.00;;;;;;5073490;28;20646;-56
2023/09/06 06:13:44;;;;;;;0.05;0.05;;;19.40;53.90;;;;;;5074320;28;20194;-57
2023/09/06 06:16:15;;;;;;;0.10;0.10;;;19.40;53.90;;;;;;5074088;28;20264;-57
2023/09/06 06:18:47;;;;;;;0.10;0.10;;;19.40;54.00;;;;;;5073857;28;20239;-59
2023/09/06 06:21:18;;;;;;;0.00;0.00;;;19.40;54.00;;;;;;5073857;28;20191;-56
2023/09/06 06:23:48;;;;;;;0.20;0.20;;;19.40;54.00;;;;;;5068814;28;20453;-56
2023/09/06 06:26:20;;;;;;;0.10;0.10;;;19.40;54.00;;;;;;5073442;28;20206;-55
2023/09/06 06:28:52;;;;;;;0.05;0.05;;;19.40;53.80;;;;;;5073100;28;20222;-57
2023/09/06 06:31:23;;;;;;;0.10;0.10;;;19.40;53.80;;;;;;5067459;28;20199;-57
2023/09/06 06:33:54;;;;;;;0.10;0.10;;;19.40;53.80;;;;;;5073253;28;20193;-57
2023/09/06 06:36:25;;;;;;;0.00;0.00;;;19.40;53.70;;;;;;5073148;28;20233;-57
2023/09/06 06:38:56;;;;;;;0.10;0.10;;;19.40;53.80;;;;;;5072282;28;20197;-57
2023/09/06 06:41:27;;;;;;;0.10;0.10;;;19.40;53.70;;;;;;5071684;28;20680;-56
2023/09/06 06:43:59;;;;;;;0.00;0.00;;;19.40;53.80;;;;;;5072633;28;20198;-56
2023/09/06 06:46:30;;;;;;;0.10;0.10;;;19.40;53.80;;;;;;5073144;28;20194;-57
2023/09/06 06:49:04;;;;;;;0.10;0.10;;;19.40;53.80;;;;;;5072850;28;20191;-57
2023/09/06 06:51:38;;;;;;;0.10;0.10;;;19.40;53.80;;;;;;5071122;28;20220;-56
2023/09/06 06:54:09;;;;;;;0.10;0.10;;;19.40;53.80;;;;;;5072225;28;20190;-57
2023/09/06 06:56:40;;;;;;;0.00;0.00;;;19.40;53.70;;;;;;5072540;28;20223;-56
2023/09/06 06:59:13;;;;;;;0.10;0.10;;;19.40;53.80;;;;;;5072048;28;20198;-57
2023/09/06 07:01:44;;;;;;;0.08;0.08;;;19.40;53.80;;;;;;5072462;28;20615;-57
2023/09/06 07:04:14;;;;;;;0.10;0.10;;;19.40;53.70;;;;;;5072298;28;20248;-57
2023/09/06 07:06:45;;;;;;;0.00;0.00;;;19.40;53.70;;;;;;5072309;28;20383;-56
2023/09/06 07:09:15;;;;;;;0.10;0.10;;;19.40;53.70;;;;;;5071685;28;20470;-57
2023/09/06 07:11:46;;;;;;;0.08;0.08;;;19.40;53.70;;;;;;5072366;28;20194;-57
2023/09/06 07:14:19;;;;;;;0.10;0.10;;;19.40;53.70;;;;;;5071733;28;20187;-59
2023/09/06 07:16:49;;;;;;;0.10;0.10;;;19.40;53.60;;;;;;5072251;28;20223;-57
2023/09/06 07:19:20;;;;;;;0.10;0.10;;;19.40;53.60;;;;;;5066568;28;20253;-57
2023/09/06 07:21:51;;;;;;;0.00;0.00;;;19.40;53.60;;;;;;5072574;28;20195;-57
2023/09/06 07:24:22;;;;;;;0.10;0.10;;;19.40;53.70;;;;;;5071739;28;20235;-55
2023/09/06 07:26:52;;;;;;;0.10;0.10;;;19.40;53.70;;;;;;5071075;28;20229;-57
2023/09/06 07:29:25;;;;;;;0.10;0.10;;;19.40;53.80;;;;;;5071709;28;20213;-57
2023/09/06 07:31:55;;;;;;;0.10;0.10;;;19.30;53.70;;;;;;5071974;28;20652;-56
2023/09/06 07:34:26;;;;;;;0.10;0.10;;;19.40;53.80;;;;;;5071743;28;20199;-56
2023/09/06 07:36:57;;;;;;;0.10;0.10;;;19.40;53.80;;;;;;5071400;28;20237;-56
2023/09/06 07:39:27;;;;;;;0.10;0.10;;;19.30;53.80;;;;;;5072278;28;20203;-57
2023/09/06 07:41:58;;;;;;;0.10;0.10;;;19.30;53.80;;;;;;5071546;28;20202;-57
2023/09/06 07:44:32;;;;;;;0.10;0.10;;;19.30;53.80;;;;;;5071744;28;20657;-57
2023/09/06 07:47:03;;;;;;;0.10;0.10;;;19.30;53.70;;;;;;5071656;28;20268;-57
2023/09/06 07:49:33;;;;;;;0.08;0.08;;;19.40;53.70;;;;;;5071651;28;20187;-56
2023/09/06 07:52:05;;;;;;;0.10;0.10;;;19.30;53.90;;;;;;5071482;28;20190;-56
2023/09/06 07:54:35;;;;;;;0.13;0.13;;;19.30;53.70;;;;;;5071266;28;20191;-57
2023/09/06 07:57:06;;;;;;;0.00;0.00;;;19.30;53.60;;;;;;5071213;28;20235;-56
2023/09/06 07:59:39;;;;;;;0.10;0.10;;;19.30;53.70;;;;;;5071653;28;20233;-56
2023/09/06 08:02:10;;;;;;;0.10;0.10;;;19.30;53.70;;;;;;5071339;28;20608;-57
2023/09/06 08:04:40;;;;;;;0.00;0.00;;;19.30;53.70;;;;;;5071198;28;20296;-56
2023/09/06 08:07:11;;;;;;;0.10;0.10;;;19.30;53.70;;;;;;5071488;28;20711;-57
2023/09/06 08:09:41;;;;;;;0.10;0.10;;;19.30;53.70;;;;;;5071170;28;20204;-57
2023/09/06 08:12:12;;;;;;;0.00;0.00;;;19.30;53.80;;;;;;5071081;28;20202;-57
2023/09/06 08:14:45;;;;;;;0.10;0.10;;;19.30;53.80;;;;;;5070337;28;20233;-57
2023/09/06 08:17:15;;;;;;;0.03;0.03;;;19.30;54.40;;;;;;5070490;28;20619;-57
2023/09/06 08:19:46;;;;;;;0.00;0.00;;;19.30;53.80;;;;;;5071099;28;20187;-56
2023/09/06 08:22:17;;;;;;;0.00;0.00;;;19.20;53.80;;;;;;5071724;28;20203;-57
2023/09/06 08:24:48;;;;;;;0.10;0.10;;;19.30;53.80;;;;;;5071158;28;20195;-57
2023/09/06 08:27:18;;;;;;;0.10;0.10;;;19.30;53.70;;;;;;5071704;28;20674;-57
2023/09/06 08:29:51;;;;;;;0.05;0.05;;;19.20;53.70;;;;;;5072002;28;20252;-57
2023/09/06 08:32:22;;;;;;;0.10;0.10;;;19.30;53.70;;;;;;5071530;28;20278;-57
2023/09/06 08:34:52;;;;;;;0.00;0.00;;;19.20;53.70;;;;;;5071181;28;20202;-57
2023/09/06 08:37:23;;;;;;;0.10;0.10;;;19.20;53.60;;;;;;5071445;28;20233;-57
2023/09/06 08:39:53;;;;;;;0.10;0.10;;;19.20;53.60;;;;;;5070208;28;20194;-57
2023/09/06 08:42:25;;;;;;;0.10;0.10;;;19.20;53.70;;;;;;5071478;28;20199;-57
2023/09/06 08:44:58;;;;;;;0.10;0.10;;;19.20;53.70;;;;;;5071355;28;20241;-57
2023/09/06 08:47:30;;;;;;;0.10;0.10;;;19.20;53.70;;;;;;5070625;28;20215;-59
2023/09/06 08:50:02;;;;;;;0.10;0.10;;;19.20;53.70;;;;;;5071744;28;20232;-60
2023/09/06 08:52:33;;;;;;;0.10;0.10;;;19.20;53.80;;;;;;5070979;28;20650;-57
2023/09/06 08:55:04;;;;;;;0.10;0.10;;;19.20;53.80;;;;;;5070452;28;20201;-57
2023/09/06 08:57:35;;;;;;;0.13;0.13;;;19.20;53.80;;;;;;5070635;28;20222;-57
2023/09/06 09:00:10;;;;;;;0.10;0.10;;;19.20;53.80;;;;;;5071181;28;20199;-57
2023/09/06 09:02:42;;;;;;;0.10;0.10;;;19.20;53.80;;;;;;5071054;28;20558;-57
2023/09/06 09:05:14;;;;;;;0.10;0.10;;;19.20;53.80;;;;;;5070815;28;20207;-57
2023/09/06 09:07:45;;;;;;;0.10;0.10;;;19.20;53.80;;;;;;5070941;28;20215;-56
2023/09/06 09:10:16;;;;;;;0.10;0.10;;;19.20;53.80;;;;;;5070932;28;20273;-56
2023/09/06 09:12:47;;;;;;;0.00;0.00;;;19.20;53.80;;;;;;5069131;28;20202;-56
2023/09/06 09:15:25;;;;;;;0.10;0.10;;;19.20;53.80;;;;;;5069719;28;20558;-56
2023/09/06 09:17:56;;;;;;;0.10;0.10;;;19.20;53.80;;;;;;5069606;28;20226;-56
2023/09/06 09:20:29;;;;;;;0.00;0.00;;;19.20;53.80;;;;;;5071132;28;20190;-56
2023/09/06 09:23:04;;;;;;;0.20;0.20;;;19.20;53.80;;;;;;5074138;28;20199;-57
2023/09/06 09:25:36;;;;;;;0.08;0.08;;;19.20;53.80;;;;;;5072960;28;20194;-56
2023/09/06 09:28:07;;;;;;;0.10;0.10;;;19.20;53.80;;;;;;5073914;28;20540;-59
2023/09/06 09:30:40;;;;;;;0.10;0.10;;;19.20;54.50;;;;;;5074458;28;20203;-56
2023/09/06 09:33:11;;;;;;;0.10;0.10;;;19.20;53.90;;;;;;5061287;28;20187;-56
2023/09/06 09:35:43;;;;;;;0.03;0.03;;;19.20;53.90;;;;;;5074790;28;20658;-56
2023/09/06 09:38:14;;;;;;;0.03;0.03;;;19.20;53.90;;;;;;5074642;28;20210;-57
2023/09/06 09:40:45;;;;;;;0.00;0.00;;;19.20;53.90;;;;;;5073789;28;20195;-57
2023/09/06 09:43:15;;;;;;;0.10;0.10;;;19.20;53.90;;;;;;5073678;28;20586;-56
2023/09/06 09:45:48;;;;;;;0.10;0.10;;;19.20;53.90;;;;;;5073527;28;20199;-56
2023/09/06 09:48:20;;;;;;;0.10;0.10;;;19.20;53.90;;;;;;5074103;28;20293;-56
2023/09/06 09:50:54;;;;;;;0.10;0.10;;;19.10;53.80;;;;;;5074599;28;20194;-56
2023/09/06 09:53:25;;;;;;;0.00;0.00;;;19.10;53.80;;;;;;5073401;28;20199;-56
2023/09/06 09:55:58;;;;;;;0.00;0.00;;;19.20;53.80;;;;;;5072367;28;20247;-56
2023/09/06 09:58:33;;;;;;;0.10;0.10;;;19.20;53.80;;;;;;5072437;28;20221;-56
2023/09/06 10:01:08;;;;;;;0.00;0.00;;;19.10;53.80;;;;;;5073950;28;20198;-56
2023/09/06 10:03:42;;;;;;;0.05;0.05;;;19.20;53.80;;;;;;5073172;28;20217;-56
2023/09/06 10:06:13;;;;;;;0.10;0.10;;;19.10;53.80;;;;;;5073510;28;20661;-57
2023/09/06 10:08:47;;;;;;;0.10;0.10;;;19.10;53.80;;;;;;5073186;28;20222;-57
2023/09/06 10:11:20;;;;;;;0.08;0.08;;;19.10;53.80;;;;;;5073093;28;20198;-56
2023/09/06 10:13:51;;;;;;;0.10;0.10;;;19.10;53.80;;;;;;5074031;28;20190;-57
2023/09/06 10:16:24;;;;;;;0.10;0.10;;;19.10;53.80;;;;;;5072819;28;20430;-57
2023/09/06 10:18:55;;;;;;;0.10;0.10;;;19.10;53.80;;;;;;5073811;28;20214;-57
2023/09/06 10:21:26;;;;;;;0.00;0.00;;;19.10;53.80;;;;;;5073831;28;20198;-57
2023/09/06 10:23:58;;;;;;;0.00;0.00;;;19.10;53.80;;;;;;5072707;28;20198;-57
2023/09/06 10:26:29;;;;;;;0.00;0.00;;;19.10;53.80;;;;;;5073255;28;20207;-55
2023/09/06 10:29:00;;;;;;;0.05;0.05;;;19.10;53.80;;;;;;5071813;28;20195;-57
2023/09/06 10:31:50;;;;;;;0.10;0.10;;;19.10;53.80;;;;;;5073687;28;20198;-56
2023/09/06 10:34:20;;;;;;;0.10;0.10;;;19.10;53.70;;;;;;5072782;28;20719;-56
2023/09/06 10:36:56;;;;;;;0.00;0.00;;;19.10;53.70;;;;;;5073473;28;20238;-56
2023/09/06 10:39:28;;;;;;;0.10;0.10;;;19.10;53.70;;;;;;5072868;28;20650;-57
2023/09/06 10:42:31;;;;;;;0.10;0.10;;;19.10;54.30;;;;;;5072453;28;20277;-56
2023/09/06 10:45:14;;;;;;;0.00;0.00;;;19.10;53.60;;;;;;5072530;28;20561;-56
2023/09/06 10:47:47;;;;;;;0.10;0.10;;;19.10;53.60;;;;;;5072557;28;20254;-56
2023/09/06 10:50:24;;;;;;;0.10;0.10;;;19.10;53.60;;;;;;5063206;28;20706;-57
2023/09/06 10:52:56;;;;;;;0.10;0.10;;;19.10;53.60;;;;;;5072820;28;20191;-56
2023/09/06 10:55:29;;;;;;;0.00;0.00;;;19.10;53.60;;;;;;5072382;28;20195;-57
2023/09/06 10:58:08;;;;;;;0.10;0.10;;;19.10;53.60;;;;;;5071985;28;20230;-57
2023/09/06 11:00:41;;;;;;;0.08;0.08;;;19.10;53.70;;;;;;5072526;28;20214;-57
2023/09/06 11:03:21;;;;;;;0.10;0.10;;;19.10;53.80;;;;;;5072912;28;20230;-57
2023/09/06 11:05:56;;;;;;;0.10;0.10;;;19.10;53.60;;;;;;5072403;28;20242;-57
2023/09/06 11:08:34;;;;;;;0.00;0.00;;;19.10;53.60;;;;;;5071949;28;20214;-57
2023/09/06 11:11:09;;;;;;;0.00;0.00;;;19.10;53.60;;;;;;5072277;28;20186;-56
2023/09/06 11:13:40;;;;;;;0.03;0.03;;;19.10;53.50;;;;;;5072919;28;20197;-56
2023/09/06 11:16:15;;;;;;;0.10;0.10;;;19.10;53.50;;;;;;5072695;28;20210;-57
2023/09/06 11:18:49;;;;;;;0.10;0.10;;;19.10;53.50;;;;;;5071955;28;20283;-57
2023/09/06 11:21:21;;;;;;;0.10;0.10;;;19.10;53.40;;;;;;5072309;28;20256;-57
2023/09/06 11:23:53;;;;;;;0.10;0.10;;;19.00;53.30;;;;;;5072375;28;20191;-57
2023/09/06 11:26:23;;;;;;;0.00;0.00;;;19.10;53.30;;;;;;5071844;28;20202;-57
2023/09/06 11:29:05;;;;;;;0.10;0.10;;;19.00;53.30;;;;;;5072280;28;20203;-57
2023/09/06 11:31:35;;;;;;;0.10;0.10;;;19.00;53.40;;;;;;5071485;28;20226;-57
2023/09/06 11:34:12;;;;;;;0.10;0.10;;;19.10;53.40;;;;;;5071857;28;20191;-57
2023/09/06 11:36:43;;;;;;;0.00;0.00;;;19.00;53.40;;;;;;5072512;28;20571;-57
2023/09/06 11:39:18;;;;;;;0.10;0.10;;;19.00;53.40;;;;;;5072144;28;20186;-57
2023/09/06 11:41:50;;;;;;;0.10;0.10;;;19.10;53.50;;;;;;5072005;28;20200;-56
2023/09/06 11:44:23;;;;;;;0.10;0.10;;;19.00;53.40;;;;;;5071297;28;20194;-57
2023/09/06 11:46:55;;;;;;;0.10;0.10;;;19.10;53.40;;;;;;5071815;28;20692;-57
2023/09/06 11:49:29;;;;;;;0.10;0.10;;;19.10;53.40;;;;;;5070776;28;20187;-57
2023/09/06 11:52:04;;;;;;;0.10;0.10;;;19.10;53.30;;;;;;5071858;28;20190;-57
2023/09/06 11:54:38;;;;;;;0.10;0.10;;;19.00;53.20;;;;;;5070976;28;20194;-57
2023/09/06 11:57:10;;;;;;;0.10;0.10;;;19.10;53.20;;;;;;5070614;28;20724;-57
2023/09/06 11:59:43;;;;;;;0.00;0.00;;;19.10;53.20;;;;;;5071170;28;20198;-57
2023/09/06 12:02:14;;;;;;;0.10;0.10;;;19.00;53.10;;;;;;5071465;28;20202;-57
2023/09/06 12:05:03;;;;;;;0.10;0.10;;;19.00;53.20;;;;;;5070991;28;20199;-57
2023/09/06 12:07:34;;;;;;;0.00;0.00;;;19.00;53.10;;;;;;5071745;28;20238;-57
2023/09/06 12:10:06;;;;;;;0.05;0.05;;;19.00;53.10;;;;;;5070895;28;20261;-57
2023/09/06 12:12:43;;;;;;;0.00;0.00;;;19.00;53.10;;;;;;5071753;28;20650;-59
2023/09/06 12:15:19;;;;;;;0.00;0.00;;;19.00;53.10;;;;;;5070347;28;20195;-57
2023/09/06 12:17:51;;;;;;;0.00;0.00;;;19.00;53.10;;;;;;5071407;28;20272;-57
2023/09/06 12:20:25;;;;;;;0.08;0.08;;;19.00;53.10;;;;;;5070758;28;20187;-57
2023/09/06 12:22:56;;;;;;;0.10;0.10;;;19.00;53.70;;;;;;5070320;28;20650;-57
2023/09/06 12:25:26;;;;;;;0.00;0.00;;;19.00;53.00;;;;;;5071056;28;20195;-57
2023/09/06 12:27:57;;;;;;;0.00;0.00;;;19.00;52.80;;;;;;5071375;28;20218;-56
2023/09/06 12:30:28;;;;;;;0.00;0.00;;;19.00;52.90;;;;;;5072101;28;20666;-56
2023/09/06 12:32:58;;;;;;;0.10;0.10;;;19.00;52.80;;;;;;5070770;28;20460;-57
2023/09/06 12:35:35;;;;;;;0.00;0.00;;;19.00;52.80;;;;;;5070571;28;20669;-56
2023/09/06 12:38:06;;;;;;;0.00;0.00;;;19.00;52.70;;;;;;5070461;28;20234;-57
2023/09/06 12:40:37;;;;;;;0.08;0.08;;;19.00;52.70;;;;;;5071056;28;20203;-57
2023/09/06 12:43:08;;;;;;;0.10;0.10;;;19.00;52.60;;;;;;5071278;28;20191;-57
2023/09/06 12:45:38;;;;;;;0.03;0.03;;;19.00;52.60;;;;;;5071537;28;20195;-56
2023/09/06 12:48:09;;;;;;;0.10;0.10;;;19.00;52.60;;;;;;5069298;28;20222;-57
2023/09/06 12:50:42;;;;;;;0.10;0.10;;;19.00;52.60;;;;;;5069635;28;20198;-57
2023/09/06 12:53:12;;;;;;;0.10;0.10;;;19.00;52.60;;;;;;5070699;28;20194;-57
2023/09/06 12:55:43;;;;;;;0.10;0.10;;;19.00;52.70;;;;;;5066998;28;20613;-57
2023/09/06 12:58:14;;;;;;;0.00;0.00;;;19.00;52.70;;;;;;5070063;28;20225;-57
2023/09/06 13:00:44;;;;;;;0.00;0.00;;;19.00;52.70;;;;;;5070488;28;20199;-56
2023/09/06 13:03:15;;;;;;;0.00;0.00;;;19.00;52.70;;;;;;5070345;28;20689;-56
2023/09/06 13:05:48;;;;;;;0.00;0.00;;;19.00;52.70;;;;;;5070871;28;20198;-57
2023/09/06 13:08:19;;;;;;;0.10;0.10;;;19.00;52.50;;;;;;5068949;28;20211;-57
2023/09/06 13:10:49;;;;;;;0.10;0.10;;;19.00;52.50;;;;;;5070754;28;20249;-56
2023/09/06 13:13:20;;;;;;;0.10;0.10;;;19.00;52.40;;;;;;5071337;28;20205;-57
2023/09/06 13:15:51;;;;;;;0.00;0.00;;;19.00;52.40;;;;;;5071039;28;20194;-52
2023/09/06 13:18:21;;;;;;;0.10;0.10;;;19.00;52.40;;;;;;5070672;28;20229;-57
2023/09/06 13:20:58;;;;;;;0.10;0.10;;;18.90;52.30;;;;;;5070655;28;20543;-56